createdAt,value
2018-07-19T00:01:25.546Z,95866.00
2018-07-19T00:03:55.809Z,95862.00
2018-07-19T00:06:26.132Z,95868.00
2018-07-19T00:08:56.528Z,95866.00
2018-07-19T00:11:26.988Z,95868.00
2018-07-19T00:13:57.397Z,95861.00
2018-07-19T00:16:27.739Z,95873.00
2018-07-19T00:18:58.066Z,95866.00
2018-07-19T00:21:28.282Z,95862.00
2018-07-19T00:23:58.580Z,95858.00
2018-07-19T00:26:28.854Z,95863.00
2018-07-19T00:28:59.164Z,95859.00
2018-07-19T00:31:29.414Z,95865.00
2018-07-19T00:33:59.790Z,95867.00
2018-07-19T00:36:30.027Z,95871.00
2018-07-19T00:39:00.346Z,95864.00
2018-07-19T00:41:30.649Z,95864.00
2018-07-19T00:44:01.055Z,95865.00
2018-07-19T00:46:31.343Z,95860.00
2018-07-19T00:49:01.650Z,95853.00
2018-07-19T00:51:31.985Z,95856.00
2018-07-19T00:54:02.292Z,95861.00
2018-07-19T00:56:32.606Z,95862.00
2018-07-19T00:59:02.941Z,95858.00
2018-07-19T01:01:33.261Z,95864.00
2018-07-19T01:04:03.616Z,95861.00
2018-07-19T01:06:33.938Z,95860.00
2018-07-19T01:09:07.060Z,95861.00
2018-07-19T01:11:37.560Z,95862.00
2018-07-19T01:14:08.513Z,95858.00
2018-07-19T01:16:38.840Z,95871.00
2018-07-19T01:19:09.205Z,95869.00
2018-07-19T01:21:39.209Z,95870.00
2018-07-19T01:24:09.913Z,95863.00
2018-07-19T01:26:40.174Z,95862.00
2018-07-19T01:29:10.561Z,95863.00
2018-07-19T01:31:40.856Z,95857.00
2018-07-19T01:34:11.135Z,95866.00
2018-07-19T01:36:41.744Z,95870.00
2018-07-19T01:39:12.742Z,95863.00
2018-07-19T01:42:29.705Z,95863.00
2018-07-19T01:44:59.975Z,95859.00
2018-07-19T01:47:30.358Z,95855.00
2018-07-19T01:50:00.647Z,95857.00
2018-07-19T01:52:30.952Z,95863.00
2018-07-19T01:55:01.227Z,95859.00
2018-07-19T01:57:31.526Z,95863.00
2018-07-19T02:00:01.829Z,95866.00
2018-07-19T02:02:32.163Z,95857.00
2018-07-19T02:05:02.463Z,95862.00
2018-07-19T02:07:36.022Z,95868.00
2018-07-19T02:10:06.419Z,95864.00
2018-07-19T02:12:36.766Z,95881.00
2018-07-19T02:15:07.554Z,95872.00
2018-07-19T02:17:37.833Z,95863.00
2018-07-19T02:20:08.110Z,95854.00
2018-07-19T02:22:38.411Z,95866.00
2018-07-19T02:25:08.676Z,95865.00
2018-07-19T02:27:38.977Z,95871.00
2018-07-19T02:30:09.219Z,95862.00
2018-07-19T02:32:39.514Z,95869.00
2018-07-19T02:35:09.497Z,95865.00
2018-07-19T02:37:39.698Z,95874.00
2018-07-19T02:40:09.987Z,95869.00
2018-07-19T02:42:40.272Z,95873.00
2018-07-19T02:45:10.522Z,95872.00
2018-07-19T02:47:40.524Z,95868.00
2018-07-19T02:50:10.644Z,95874.00
2018-07-19T02:52:40.963Z,95872.00
2018-07-19T02:55:11.222Z,95871.00
2018-07-19T02:57:41.551Z,95868.00
2018-07-19T03:00:11.789Z,95869.00
2018-07-19T03:02:42.104Z,95863.00
2018-07-19T03:05:12.330Z,95868.00
2018-07-19T03:07:42.735Z,95866.00
2018-07-19T03:10:13.082Z,95864.00
2018-07-19T03:12:43.541Z,95862.00
2018-07-19T03:15:13.826Z,95865.00
2018-07-19T03:17:44.362Z,95857.00
2018-07-19T03:20:14.632Z,95849.00
2018-07-19T03:22:44.686Z,95853.00
2018-07-19T03:25:14.868Z,95847.00
2018-07-19T03:27:45.277Z,95855.00
2018-07-19T03:30:15.590Z,95850.00
2018-07-19T03:32:46.714Z,95853.00
2018-07-19T03:35:16.989Z,95852.00
2018-07-19T03:37:46.940Z,95846.00
2018-07-19T03:40:17.102Z,95849.00
2018-07-19T03:42:47.338Z,95855.00
2018-07-19T03:45:17.659Z,95848.00
2018-07-19T03:47:47.893Z,95856.00
2018-07-19T03:50:18.231Z,95848.00
2018-07-19T03:52:48.479Z,95853.00
2018-07-19T03:55:18.790Z,95858.00
2018-07-19T03:57:49.067Z,95858.00
2018-07-19T04:00:19.077Z,95863.00
2018-07-19T04:02:54.630Z,95861.00
2018-07-19T04:05:28.409Z,95862.00
2018-07-19T04:07:59.713Z,95856.00
2018-07-19T04:10:30.173Z,95866.00
2018-07-19T04:13:00.433Z,95866.00
2018-07-19T04:15:30.789Z,95858.00
2018-07-19T04:18:01.081Z,95861.00
2018-07-19T04:20:32.180Z,95863.00
2018-07-19T04:23:02.357Z,95860.00
2018-07-19T04:25:32.325Z,95856.00
2018-07-19T04:28:02.506Z,95859.00
2018-07-19T04:30:32.803Z,95869.00
2018-07-19T04:33:03.109Z,95857.00
2018-07-19T04:35:33.450Z,95874.00
2018-07-19T04:38:03.774Z,95868.00
2018-07-19T04:40:34.098Z,95869.00
2018-07-19T04:43:04.330Z,95869.00
2018-07-19T04:45:34.695Z,95868.00
2018-07-19T04:48:05.095Z,95870.00
2018-07-19T04:50:35.387Z,95874.00
2018-07-19T04:53:05.678Z,95876.00
2018-07-19T04:55:36.001Z,95871.00
2018-07-19T04:58:06.246Z,95880.00
2018-07-19T05:00:36.533Z,95871.00
2018-07-19T05:03:06.902Z,95871.00
2018-07-19T05:05:37.652Z,95868.00
2018-07-19T05:08:08.034Z,95870.00
2018-07-19T05:10:38.462Z,95870.00
2018-07-19T05:13:08.770Z,95865.00
2018-07-19T05:15:39.080Z,95865.00
2018-07-19T05:18:10.125Z,95868.00
2018-07-19T05:20:40.950Z,95870.00
2018-07-19T05:23:11.253Z,95872.00
2018-07-19T05:25:41.589Z,95878.00
2018-07-19T05:28:13.461Z,95883.00
2018-07-19T05:30:45.378Z,95879.00
2018-07-19T05:33:15.736Z,95874.00
2018-07-19T05:35:46.146Z,95872.00
2018-07-19T05:38:16.464Z,95881.00
2018-07-19T05:40:46.810Z,95880.00
2018-07-19T05:43:17.105Z,95886.00
2018-07-19T05:45:47.967Z,95880.00
2018-07-19T05:48:18.556Z,95891.00
2018-07-19T05:50:48.898Z,95894.00
2018-07-19T05:53:19.410Z,95876.00
2018-07-19T05:55:50.034Z,95878.00
2018-07-19T05:58:20.757Z,95877.00
2018-07-19T06:00:52.039Z,95874.00
2018-07-19T06:03:22.440Z,95880.00
2018-07-19T06:05:53.036Z,95879.00
2018-07-19T06:08:23.430Z,95879.00
2018-07-19T06:10:54.521Z,95878.00
2018-07-19T06:13:25.154Z,95886.00
2018-07-19T06:15:55.817Z,95874.00
2018-07-19T06:18:26.367Z,95874.00
2018-07-19T06:20:56.814Z,95875.00
2018-07-19T06:23:27.373Z,95874.00
2018-07-19T06:25:58.302Z,95875.00
2018-07-19T06:28:28.775Z,95874.00
2018-07-19T06:30:59.159Z,95874.00
2018-07-19T06:33:29.570Z,95870.00
2018-07-19T06:36:00.109Z,95868.00
2018-07-19T06:38:30.417Z,95872.00
2018-07-19T06:41:00.730Z,95876.00
2018-07-19T06:43:31.023Z,95880.00
2018-07-19T06:46:01.393Z,95872.00
2018-07-19T06:48:31.690Z,95879.00
2018-07-19T06:51:02.073Z,95876.00
2018-07-19T06:53:32.369Z,95871.00
2018-07-19T06:56:03.002Z,95875.00
2018-07-19T06:58:33.299Z,95871.00
2018-07-19T07:01:03.685Z,95874.00
2018-07-19T07:03:33.941Z,95869.00
2018-07-19T07:06:04.478Z,95868.00
2018-07-19T07:08:35.026Z,95873.00
2018-07-19T07:11:05.894Z,95876.00
2018-07-19T07:13:36.196Z,95871.00
2018-07-19T07:16:06.908Z,95871.00
2018-07-19T07:18:37.371Z,95869.00
2018-07-19T07:21:07.750Z,95878.00
2018-07-19T07:23:38.133Z,95880.00
2018-07-19T07:26:08.497Z,95873.00
2018-07-19T07:28:43.046Z,95875.00
2018-07-19T07:31:13.303Z,95880.00
2018-07-19T07:33:43.613Z,95869.00
2018-07-19T07:36:13.974Z,95876.00
2018-07-19T07:38:44.661Z,95885.00
2018-07-19T07:41:25.908Z,95879.00
2018-07-19T07:43:56.440Z,95879.00
2018-07-19T07:46:26.702Z,95876.00
2018-07-19T07:48:57.053Z,95874.00
2018-07-19T07:51:27.350Z,95884.00
2018-07-19T07:53:57.779Z,95806.00
2018-07-19T07:56:28.054Z,95874.00
2018-07-19T07:58:58.355Z,95878.00
2018-07-19T08:01:28.788Z,95880.00
2018-07-19T08:03:59.143Z,95882.00
2018-07-19T08:06:29.454Z,95880.00
2018-07-19T08:08:59.838Z,95882.00
2018-07-19T08:11:30.323Z,95881.00
2018-07-19T08:14:00.677Z,95883.00
2018-07-19T08:16:31.005Z,95880.00
2018-07-19T08:19:01.398Z,95876.00
2018-07-19T08:21:31.677Z,95879.00
2018-07-19T08:24:01.995Z,95878.00
2018-07-19T08:26:32.286Z,95876.00
2018-07-19T08:29:02.634Z,95879.00
2018-07-19T08:31:32.918Z,95876.00
2018-07-19T08:34:03.345Z,95882.00
2018-07-19T08:36:33.657Z,95884.00
2018-07-19T08:39:04.944Z,95883.00
2018-07-19T08:41:35.197Z,95885.00
2018-07-19T08:44:05.901Z,95877.00
2018-07-19T08:46:36.939Z,95883.00
2018-07-19T08:49:07.473Z,95884.00
2018-07-19T08:51:38.136Z,95875.00
2018-07-19T08:54:08.410Z,95871.00
2018-07-19T08:56:38.935Z,95873.00
2018-07-19T08:59:09.368Z,95875.00
2018-07-19T09:01:39.740Z,95882.00
2018-07-19T09:04:12.154Z,95876.00
2018-07-19T09:06:45.503Z,95883.00
2018-07-19T09:09:15.813Z,95875.00
2018-07-19T09:11:46.143Z,95877.00
2018-07-19T09:14:23.114Z,95875.00
2018-07-19T09:16:53.863Z,95872.00
2018-07-19T09:19:24.154Z,95874.00
2018-07-19T09:21:54.471Z,95873.00
2018-07-19T09:24:24.737Z,95869.00
2018-07-19T09:26:55.107Z,95868.00
2018-07-19T09:29:25.413Z,95864.00
2018-07-19T09:31:55.746Z,95864.00
2018-07-19T09:34:26.046Z,95886.00
2018-07-19T09:36:56.328Z,95865.00
2018-07-19T09:39:26.631Z,95869.00
2018-07-19T09:41:57.014Z,95869.00
2018-07-19T09:44:27.325Z,95862.00
2018-07-19T09:46:57.622Z,95873.00
2018-07-19T09:49:27.931Z,95875.00
2018-07-19T09:51:58.251Z,95869.00
2018-07-19T09:54:45.529Z,95879.00
2018-07-19T09:57:15.821Z,95875.00
2018-07-19T09:59:46.290Z,95874.00
2018-07-19T10:02:16.619Z,95877.00
2018-07-19T10:04:46.921Z,95877.00
2018-07-19T10:07:17.245Z,95871.00
2018-07-19T10:09:47.791Z,95872.00
2018-07-19T10:12:18.257Z,95872.00
2018-07-19T10:14:49.165Z,95875.00
2018-07-19T10:17:19.564Z,95877.00
2018-07-19T10:19:49.894Z,95878.00
2018-07-19T10:22:20.187Z,95877.00
2018-07-19T10:24:50.881Z,95881.00
2018-07-19T10:27:21.174Z,95884.00
2018-07-19T10:29:51.550Z,95881.00
2018-07-19T10:32:21.959Z,95876.00
2018-07-19T10:34:52.526Z,95881.00
2018-07-19T10:37:22.867Z,95884.00
2018-07-19T10:39:53.295Z,95874.00
2018-07-19T10:42:23.694Z,95876.00
2018-07-19T10:44:53.978Z,95877.00
2018-07-19T10:47:24.318Z,95878.00
2018-07-19T10:49:55.046Z,95874.00
2018-07-19T10:52:25.614Z,95875.00
2018-07-19T10:54:55.958Z,95876.00
2018-07-19T10:57:26.938Z,95867.00
2018-07-19T10:59:57.390Z,95871.00
2018-07-19T11:02:27.656Z,95868.00
2018-07-19T11:04:57.902Z,95863.00
2018-07-19T11:07:28.224Z,95868.00
2018-07-19T11:09:58.495Z,95864.00
2018-07-19T11:12:28.763Z,95869.00
2018-07-19T11:14:59.023Z,95862.00
2018-07-19T11:17:31.586Z,95862.00
2018-07-19T11:20:01.858Z,95861.00
2018-07-19T11:22:32.206Z,95857.00
2018-07-19T11:25:02.207Z,95860.00
2018-07-19T11:27:32.419Z,95860.00
2018-07-19T11:30:02.651Z,95856.00
2018-07-19T11:32:33.027Z,95865.00
2018-07-19T11:35:03.501Z,95854.00
2018-07-19T11:37:33.860Z,95849.00
2018-07-19T11:40:04.150Z,95847.00
2018-07-19T11:42:35.127Z,95847.00
2018-07-19T11:45:05.751Z,95849.00
2018-07-19T11:47:36.106Z,95848.00
2018-07-19T11:50:06.873Z,95849.00
2018-07-19T11:52:38.901Z,95852.00
2018-07-19T11:58:16.386Z,95850.00
2018-07-19T12:00:46.808Z,95849.00
2018-07-19T12:03:16.819Z,95845.00
2018-07-19T12:06:01.416Z,95842.00
2018-07-19T12:08:31.938Z,95838.00
2018-07-19T12:11:02.199Z,95838.00
2018-07-19T12:13:32.521Z,95841.00
2018-07-19T12:16:02.791Z,95840.00
2018-07-19T12:18:33.223Z,95836.00
2018-07-19T12:21:03.556Z,95836.00
2018-07-19T12:23:33.833Z,95831.00
2018-07-19T12:26:04.106Z,95839.00
2018-07-19T12:28:34.977Z,95831.00
2018-07-19T12:31:05.724Z,95826.00
2018-07-19T12:33:36.035Z,95826.00
2018-07-19T12:36:06.958Z,95819.00
2018-07-19T12:38:37.330Z,95821.00
2018-07-19T12:41:07.898Z,95815.00
2018-07-19T12:43:38.213Z,95818.00
2018-07-19T12:46:08.178Z,95809.00
2018-07-19T12:48:38.394Z,95809.00
2018-07-19T12:51:08.644Z,95807.00
2018-07-19T12:53:39.249Z,95814.00
2018-07-19T12:56:09.666Z,95810.00
2018-07-19T12:58:40.022Z,95808.00
2018-07-19T13:01:10.338Z,95806.00
2018-07-19T13:03:40.794Z,95811.00
2018-07-19T13:06:11.106Z,95813.00
2018-07-19T13:08:41.361Z,95802.00
2018-07-19T13:11:11.655Z,95803.00
2018-07-19T13:13:42.081Z,95800.00
2018-07-19T13:16:12.556Z,95797.00
2018-07-19T13:18:42.918Z,95797.00
2018-07-19T13:21:13.246Z,95801.00
2018-07-19T13:23:43.554Z,95799.00
2018-07-19T13:26:13.801Z,95793.00
2018-07-19T13:28:44.082Z,95801.00
2018-07-19T13:31:14.322Z,95798.00
2018-07-19T13:33:44.835Z,95801.00
2018-07-19T13:36:15.127Z,95796.00
2018-07-19T13:38:45.410Z,95795.00
2018-07-19T13:41:15.899Z,95791.00
2018-07-19T13:43:46.208Z,95799.00
2018-07-19T13:46:17.784Z,95792.00
2018-07-19T13:48:48.082Z,95789.00
2018-07-19T13:54:38.366Z,95790.00
2018-07-19T13:57:08.736Z,95780.00
2018-07-19T13:59:53.942Z,95789.00
2018-07-19T14:02:24.287Z,95778.00
2018-07-19T14:04:54.583Z,95783.00
2018-07-19T14:07:24.905Z,95779.00
2018-07-19T14:09:55.346Z,95783.00
2018-07-19T14:12:25.840Z,95777.00
2018-07-19T14:15:02.217Z,95775.00
2018-07-19T14:17:32.536Z,95775.00
2018-07-19T14:20:03.534Z,95776.00
2018-07-19T14:22:35.641Z,95770.00
2018-07-19T14:25:20.263Z,95771.00
2018-07-19T14:27:50.754Z,95766.00
2018-07-19T14:30:21.160Z,95771.00
2018-07-19T14:32:53.975Z,95775.00
2018-07-19T14:35:24.396Z,95763.00
2018-07-19T14:37:54.934Z,95755.00
2018-07-19T14:40:25.364Z,95769.00
2018-07-19T14:42:56.199Z,95755.00
2018-07-19T14:45:29.636Z,95755.00
2018-07-19T14:48:02.142Z,95698.00
2018-07-19T14:50:47.068Z,95758.00
2018-07-19T14:53:18.589Z,95757.00
2018-07-19T14:55:48.910Z,95747.00
2018-07-19T14:58:22.025Z,95751.00
2018-07-19T15:00:52.529Z,95743.00
2018-07-19T15:03:23.202Z,95741.00
2018-07-19T15:05:53.920Z,95742.00
2018-07-19T15:08:24.228Z,95743.00
2018-07-19T15:10:54.521Z,95743.00
2018-07-19T15:13:25.107Z,95744.00
2018-07-19T15:15:55.403Z,95743.00
2018-07-19T15:18:25.770Z,95737.00
2018-07-19T15:20:56.040Z,95739.00
2018-07-19T15:23:26.350Z,95736.00
2018-07-19T15:25:57.087Z,95737.00
2018-07-19T15:28:27.470Z,95735.00
2018-07-19T15:30:57.734Z,95731.00
2018-07-19T15:33:28.047Z,95725.00
2018-07-19T15:35:58.334Z,95724.00
2018-07-19T15:38:28.613Z,95727.00
2018-07-19T15:40:58.923Z,95720.00
2018-07-19T15:43:29.406Z,95715.00
2018-07-19T15:45:59.742Z,95719.00
2018-07-19T15:48:30.018Z,95717.00
2018-07-19T15:51:00.329Z,95720.00
2018-07-19T15:53:30.615Z,95724.00
2018-07-19T15:56:01.023Z,95720.00
2018-07-19T15:58:31.329Z,95722.00
2018-07-19T16:01:01.661Z,95724.00
2018-07-19T16:03:31.919Z,95720.00
2018-07-19T16:06:02.282Z,95721.00
2018-07-19T16:08:33.130Z,95710.00
2018-07-19T16:11:03.634Z,95719.00
2018-07-19T16:13:33.909Z,95708.00
2018-07-19T16:16:04.234Z,95702.00
2018-07-19T16:18:34.511Z,95707.00
2018-07-19T16:21:04.825Z,95708.00
2018-07-19T16:23:35.102Z,95709.00
2018-07-19T16:26:05.941Z,95711.00
2018-07-19T16:28:36.379Z,95703.00
2018-07-19T16:31:06.856Z,95700.00
2018-07-19T16:33:37.326Z,95708.00
2018-07-19T16:36:07.630Z,95702.00
2018-07-19T16:38:37.957Z,95703.00
2018-07-19T16:41:08.337Z,95697.00
2018-07-19T16:43:38.725Z,95698.00
2018-07-19T16:46:09.131Z,95698.00
2018-07-19T16:48:39.402Z,95696.00
2018-07-19T16:51:09.749Z,95702.00
2018-07-19T16:53:40.112Z,95691.00
2018-07-19T16:56:10.482Z,95692.00
2018-07-19T16:58:40.808Z,95698.00
2018-07-19T17:01:11.120Z,95687.00
2018-07-19T17:03:41.375Z,95682.00
2018-07-19T17:06:12.432Z,95679.00
2018-07-19T17:08:42.791Z,95687.00
2018-07-19T17:11:13.074Z,95681.00
2018-07-19T17:13:43.425Z,95683.00
2018-07-19T17:16:13.695Z,95683.00
2018-07-19T17:18:44.362Z,95684.00
2018-07-19T17:21:14.770Z,95682.00
2018-07-19T17:23:46.675Z,95694.00
2018-07-19T17:26:17.005Z,95683.00
2018-07-19T17:28:48.706Z,95676.00
2018-07-19T17:31:19.263Z,95684.00
2018-07-19T17:33:49.537Z,95676.00
2018-07-19T17:36:19.858Z,95681.00
2018-07-19T17:38:50.176Z,95684.00
2018-07-19T17:41:20.625Z,95677.00
2018-07-19T17:43:51.641Z,95679.00
2018-07-19T17:46:22.053Z,95680.00
2018-07-19T17:48:52.733Z,95688.00
2018-07-19T17:51:23.189Z,95677.00
2018-07-19T17:53:54.378Z,95567.00
2018-07-19T17:56:24.789Z,95678.00
2018-07-19T17:58:55.054Z,95679.00
2018-07-19T18:01:34.101Z,95681.00
2018-07-19T18:04:04.843Z,95682.00
2018-07-19T18:06:35.174Z,95675.00
2018-07-19T18:09:08.563Z,95678.00
2018-07-19T18:11:39.239Z,95614.00
2018-07-19T18:14:09.522Z,95672.00
2018-07-19T18:16:39.907Z,95675.00
2018-07-19T18:19:10.215Z,95676.00
2018-07-19T18:21:40.569Z,95679.00
2018-07-19T18:24:10.960Z,95688.00
2018-07-19T18:26:41.365Z,95683.00
2018-07-19T18:29:11.603Z,95680.00
2018-07-19T18:31:41.894Z,95680.00
2018-07-19T18:34:12.248Z,95684.00
2018-07-19T18:36:42.851Z,95680.00
2018-07-19T18:39:13.390Z,95678.00
2018-07-19T18:41:43.959Z,95683.00
2018-07-19T18:44:14.275Z,95685.00
2018-07-19T18:46:45.237Z,95678.00
2018-07-19T18:49:15.221Z,95683.00
2018-07-19T18:51:46.103Z,95680.00
2018-07-19T18:54:16.430Z,95689.00
2018-07-19T18:56:46.794Z,95685.00
2018-07-19T18:59:17.148Z,95693.00
2018-07-19T19:01:47.454Z,95694.00
2018-07-19T19:04:17.741Z,95688.00
2018-07-19T19:06:51.442Z,95692.00
2018-07-19T19:09:21.742Z,95612.00
2018-07-19T19:11:51.999Z,95705.00
2018-07-19T19:14:23.630Z,95702.00
2018-07-19T19:16:53.922Z,95711.00
2018-07-19T19:19:24.306Z,95722.00
2018-07-19T19:21:54.631Z,95731.00
2018-07-19T19:24:24.923Z,95724.00
2018-07-19T19:26:55.172Z,95728.00
2018-07-19T19:29:25.839Z,95722.00
2018-07-19T19:31:56.139Z,95723.00
2018-07-19T19:34:26.513Z,95729.00
2018-07-19T19:36:56.797Z,95736.00
2018-07-19T19:39:27.110Z,95728.00
2018-07-19T19:41:57.394Z,95730.00
2018-07-19T19:44:29.770Z,95737.00
2018-07-19T19:47:02.154Z,95740.00
2018-07-19T19:49:32.466Z,95736.00
2018-07-19T19:52:02.725Z,95738.00
2018-07-19T19:54:33.081Z,95742.00
2018-07-19T19:57:03.331Z,95747.00
2018-07-19T19:59:33.637Z,95743.00
2018-07-19T20:02:03.943Z,95748.00
2018-07-19T20:04:34.492Z,95755.00
2018-07-19T20:07:05.190Z,95757.00
2018-07-19T20:09:36.031Z,95758.00
2018-07-19T20:12:08.484Z,95760.00
2018-07-19T20:14:38.935Z,95752.00
2018-07-19T20:17:09.250Z,95755.00
2018-07-19T20:19:39.974Z,95755.00
2018-07-19T20:22:10.257Z,95760.00
2018-07-19T20:24:41.336Z,95756.00
2018-07-19T20:27:11.578Z,95762.00
2018-07-19T20:29:42.019Z,95761.00
2018-07-19T20:32:13.656Z,95765.00
2018-07-19T20:34:44.708Z,95765.00
2018-07-19T20:37:14.975Z,95766.00
2018-07-19T20:39:45.604Z,95774.00
2018-07-19T20:42:15.926Z,95770.00
2018-07-19T20:44:46.244Z,95768.00
2018-07-19T20:47:16.686Z,95772.00
2018-07-19T20:49:47.109Z,95768.00
2018-07-19T20:52:17.448Z,95775.00
2018-07-19T20:54:47.728Z,95770.00
2018-07-19T20:57:17.975Z,95766.00
2018-07-19T20:59:48.221Z,95756.00
2018-07-19T21:02:18.849Z,95768.00
2018-07-19T21:04:49.352Z,95768.00
2018-07-19T21:07:19.899Z,95767.00
2018-07-19T21:09:50.098Z,95774.00
2018-07-19T21:12:20.442Z,95773.00
2018-07-19T21:14:51.144Z,95767.00
2018-07-19T21:17:21.474Z,95775.00
2018-07-19T21:19:51.999Z,95775.00
2018-07-19T21:22:22.440Z,95771.00
2018-07-19T21:24:53.295Z,95776.00
2018-07-19T21:27:23.665Z,95772.00
2018-07-19T21:29:54.250Z,95779.00
2018-07-19T21:32:24.653Z,95778.00
2018-07-19T21:34:54.962Z,95771.00
2018-07-19T21:37:25.739Z,95778.00
2018-07-19T21:39:56.166Z,95775.00
2018-07-19T21:42:28.542Z,95775.00
2018-07-19T21:44:58.814Z,95778.00
2018-07-19T21:47:29.705Z,95776.00
2018-07-19T21:50:01.150Z,95776.00
2018-07-19T21:52:32.738Z,95788.00
2018-07-19T21:55:08.450Z,95775.00
2018-07-19T21:57:41.188Z,95783.00
2018-07-19T22:00:13.246Z,95775.00
2018-07-19T22:02:44.893Z,95775.00
2018-07-19T22:05:15.830Z,95772.00
2018-07-19T22:07:46.806Z,95776.00
2018-07-19T22:10:18.407Z,95777.00
2018-07-19T22:12:49.727Z,95770.00
2018-07-19T22:15:21.134Z,95775.00
2018-07-19T22:17:52.031Z,95776.00
2018-07-19T22:20:24.255Z,95775.00
2018-07-19T22:22:55.742Z,95773.00
2018-07-19T22:25:27.192Z,95772.00
2018-07-19T22:27:58.170Z,95777.00
2018-07-19T22:30:29.437Z,95770.00
2018-07-19T22:33:00.278Z,95774.00
2018-07-19T22:35:31.657Z,95768.00
2018-07-19T22:38:03.028Z,95763.00
2018-07-19T22:40:34.987Z,95771.00
2018-07-19T22:43:06.152Z,95766.00
2018-07-19T22:45:37.366Z,95762.00
2018-07-19T22:48:08.901Z,95762.00
2018-07-19T22:50:40.667Z,95760.00
2018-07-19T22:53:11.776Z,95764.00
2018-07-19T22:55:43.016Z,95758.00
2018-07-19T22:58:14.333Z,95759.00
2018-07-19T23:00:45.923Z,95761.00
2018-07-19T23:03:16.546Z,95761.00
2018-07-19T23:05:48.566Z,95767.00
2018-07-19T23:08:21.460Z,95761.00
2018-07-19T23:10:54.834Z,95769.00
2018-07-19T23:13:26.006Z,95762.00
2018-07-19T23:15:57.631Z,95757.00
2018-07-19T23:18:29.377Z,95750.00
2018-07-19T23:21:00.699Z,95756.00
2018-07-19T23:23:31.943Z,95754.00
2018-07-19T23:26:03.011Z,95739.00
2018-07-19T23:28:33.102Z,95742.00
2018-07-19T23:31:03.266Z,95736.00
2018-07-19T23:33:33.606Z,95737.00
2018-07-19T23:36:07.621Z,95744.00
2018-07-19T23:38:48.276Z,95743.00
2018-07-19T23:41:23.777Z,95744.00
2018-07-19T23:43:58.196Z,95733.00
2018-07-19T23:46:34.640Z,95734.00
2018-07-19T23:49:07.751Z,95735.00
2018-07-19T23:51:39.078Z,95731.00
2018-07-19T23:54:09.457Z,95742.00
2018-07-19T23:56:39.913Z,95731.00
2018-07-19T23:59:10.301Z,95734.00
